Miami, Florida
Traffic Map
Current Weather Conditions
Miami, Florida
Scattered Clouds
Scattered Clouds
94°
Feels Like: 104°
Wind Chill: 94° Ceiling: Unl
Heat Index: 104° Visibility: 10mi
Dew Point: 74° Wind: 10mph
Humidity: 52% Direction: 140° (SE)
Pressure: 29.99in Gusts: 0mph
Raw Report DataKMIA 282053Z 14009KT 10SM SCT060 34/23 A2999 RMK AO2 SLP155 T03440233 $
Traffic Incident Summary
Active as of:
Severity:
Category:
InformationThere was an issue retrieving the traffic information for this location. Please try a different location or try again shortly.
Advertisements
Track Severe Weather on mobile